createdAt,value
2022-12-04T00:01:58.508Z,13.98
2022-12-04T00:04:25.136Z,8.63
2022-12-04T00:06:58.621Z,10.73
2022-12-04T00:09:25.694Z,12.85
2022-12-04T00:11:52.136Z,13.30
2022-12-04T00:14:19.100Z,12.90
2022-12-04T00:16:45.842Z,10.55
2022-12-04T00:19:12.429Z,10.52
2022-12-04T00:21:38.982Z,11.77
2022-12-04T00:24:05.969Z,14.38
2022-12-04T00:26:32.502Z,13.75
2022-12-04T00:28:59.098Z,13.18
2022-12-04T00:31:28.214Z,10.00
2022-12-04T00:33:55.416Z,11.75
2022-12-04T00:36:24.598Z,14.60
2022-12-04T00:38:51.899Z,14.25
2022-12-04T00:41:21.159Z,16.00
2022-12-04T00:43:47.780Z,14.43
2022-12-04T00:46:15.457Z,14.88
2022-12-04T00:48:42.885Z,15.18
2022-12-04T00:51:15.874Z,14.38
2022-12-04T00:53:42.884Z,13.25
2022-12-04T00:56:15.012Z,11.27
2022-12-04T00:58:42.782Z,13.73
2022-12-04T01:01:15.798Z,13.30
2022-12-04T01:03:43.387Z,12.98
2022-12-04T01:06:20.828Z,13.82
2022-12-04T01:08:48.112Z,15.07
2022-12-04T01:11:14.547Z,13.38
2022-12-04T01:13:40.947Z,13.18
2022-12-04T01:16:07.738Z,15.40
2022-12-04T01:18:34.347Z,16.38
2022-12-04T01:21:00.812Z,15.50
2022-12-04T01:23:27.222Z,10.73
2022-12-04T01:25:56.003Z,12.65
2022-12-04T01:28:23.002Z,14.40
2022-12-04T01:31:03.189Z,14.82
2022-12-04T01:33:30.250Z,11.80
2022-12-04T01:35:59.181Z,9.98
2022-12-04T01:38:26.188Z,14.57
2022-12-04T01:40:53.230Z,15.18
2022-12-04T01:43:20.178Z,14.88
2022-12-04T01:45:51.471Z,15.65
2022-12-04T01:48:32.019Z,9.70
2022-12-04T01:51:26.814Z,13.85
2022-12-04T01:53:57.423Z,11.05
2022-12-04T01:56:31.616Z,11.57
2022-12-04T01:59:01.573Z,12.60
2022-12-04T02:01:31.910Z,11.82
2022-12-04T02:04:02.212Z,11.35
2022-12-04T02:06:28.608Z,11.65
2022-12-04T02:08:55.304Z,10.45
2022-12-04T02:11:46.562Z,15.45
2022-12-04T02:14:44.399Z,14.57
2022-12-04T02:17:18.936Z,11.80
2022-12-04T02:20:09.596Z,14.43
2022-12-04T02:22:35.933Z,11.52
2022-12-04T02:25:21.467Z,12.85
2022-12-04T02:27:54.116Z,12.88
2022-12-04T02:30:20.753Z,11.60
2022-12-04T02:32:59.776Z,12.65
2022-12-04T02:35:40.642Z,14.80
2022-12-04T02:38:13.919Z,13.55
2022-12-04T02:40:56.506Z,14.77
2022-12-04T02:43:37.912Z,9.85
2022-12-04T02:46:13.662Z,15.40
2022-12-04T02:48:43.911Z,14.98
2022-12-04T02:51:14.807Z,14.98
2022-12-04T02:53:47.371Z,9.95
2022-12-04T02:56:22.813Z,10.32
2022-12-04T02:59:00.004Z,14.98
2022-12-04T03:01:32.390Z,14.32
2022-12-04T03:04:08.462Z,8.68
2022-12-04T03:06:39.286Z,16.05
2022-12-04T03:09:15.827Z,15.60
2022-12-04T03:11:49.917Z,11.52
2022-12-04T03:14:25.566Z,15.82
2022-12-04T03:16:57.341Z,16.40
2022-12-04T03:19:28.243Z,15.25
2022-12-04T03:22:00.011Z,11.45
2022-12-04T03:24:34.163Z,11.48
2022-12-04T03:27:03.656Z,15.15
2022-12-04T03:29:42.913Z,14.18
2022-12-04T03:32:15.871Z,15.02
2022-12-04T03:34:58.894Z,16.20
2022-12-04T03:37:49.522Z,13.93
2022-12-04T03:40:28.793Z,15.13
2022-12-04T03:43:01.834Z,10.00
2022-12-04T03:45:39.193Z,14.50
2022-12-04T03:48:16.764Z,16.25
2022-12-04T03:51:17.879Z,14.57
2022-12-04T03:54:05.082Z,13.65
2022-12-04T03:56:38.641Z,12.82
2022-12-04T03:59:11.118Z,13.75
2022-12-04T04:01:43.176Z,13.80
2022-12-04T04:04:14.725Z,14.07
2022-12-04T04:06:47.228Z,16.23
2022-12-04T04:09:19.143Z,14.10
2022-12-04T04:11:54.835Z,15.77
2022-12-04T04:14:49.638Z,13.48
2022-12-04T04:17:39.144Z,13.57
2022-12-04T04:20:35.445Z,12.07
2022-12-04T04:23:24.292Z,15.70
2022-12-04T04:25:53.476Z,15.85
2022-12-04T04:28:28.669Z,16.13
2022-12-04T04:31:12.160Z,10.43
2022-12-04T04:33:49.179Z,12.82
2022-12-04T04:36:43.334Z,14.55
2022-12-04T04:39:36.307Z,13.40
2022-12-04T04:45:05.426Z,12.50
2022-12-04T04:47:46.129Z,14.38
2022-12-04T04:50:15.094Z,12.85
2022-12-04T04:52:47.003Z,14.38
2022-12-04T04:55:14.932Z,13.45
2022-12-04T04:57:41.456Z,12.55
2022-12-04T05:00:11.912Z,16.42
2022-12-04T05:02:38.462Z,13.60
2022-12-04T05:05:05.841Z,14.68
2022-12-04T05:07:32.335Z,17.73
2022-12-04T05:09:59.270Z,12.95
2022-12-04T05:12:25.912Z,13.90
2022-12-04T05:14:52.583Z,15.02
2022-12-04T05:17:19.466Z,15.05
2022-12-04T05:19:56.227Z,10.52
2022-12-04T05:22:26.717Z,16.25
2022-12-04T05:24:54.177Z,15.80
2022-12-04T05:27:21.723Z,11.02
2022-12-04T05:29:48.860Z,14.40
2022-12-04T05:32:15.727Z,16.27
2022-12-04T05:34:42.426Z,15.48
2022-12-04T05:37:08.895Z,15.20
2022-12-04T05:39:35.671Z,10.10
2022-12-04T05:42:02.089Z,11.60
2022-12-04T05:44:28.464Z,14.50
2022-12-04T05:46:54.980Z,14.27
2022-12-04T05:49:21.498Z,14.73
2022-12-04T05:51:50.577Z,14.43
2022-12-04T05:54:18.954Z,13.02
2022-12-04T05:56:45.827Z,9.32
2022-12-04T05:59:12.956Z,13.73
2022-12-04T06:01:39.845Z,15.23
2022-12-04T06:04:06.399Z,14.73
2022-12-04T06:06:32.921Z,12.80
2022-12-04T06:09:00.092Z,14.35
2022-12-04T06:11:34.822Z,11.10
2022-12-04T06:14:04.169Z,16.85
2022-12-04T06:16:36.414Z,15.02
2022-12-04T06:19:06.899Z,13.07
2022-12-04T06:21:35.391Z,14.38
2022-12-04T06:24:02.374Z,10.27
2022-12-04T06:26:29.027Z,18.13
2022-12-04T06:28:56.864Z,14.70
2022-12-04T06:31:24.187Z,13.90
2022-12-04T06:33:51.123Z,10.43
2022-12-04T06:36:21.093Z,10.20
2022-12-04T06:38:49.220Z,15.65
2022-12-04T06:41:17.875Z,14.38
2022-12-04T06:43:44.744Z,12.75
2022-12-04T06:46:18.747Z,16.25
2022-12-04T06:48:45.578Z,14.35
2022-12-04T06:51:17.532Z,11.25
2022-12-04T06:53:44.726Z,9.98
2022-12-04T06:56:16.247Z,13.82
2022-12-04T06:58:42.741Z,13.43
2022-12-04T07:01:12.141Z,13.85
2022-12-04T07:08:38.599Z,14.13
2022-12-04T07:11:05.539Z,13.15
2022-12-04T07:13:31.915Z,14.55
2022-12-04T07:16:03.032Z,11.27
2022-12-04T07:18:31.070Z,14.70
2022-12-04T07:20:57.912Z,12.98
2022-12-04T07:23:24.469Z,13.85
2022-12-04T07:25:51.039Z,12.20
2022-12-04T07:28:17.543Z,10.65
2022-12-04T07:30:44.611Z,11.75
2022-12-04T07:33:11.084Z,13.20
2022-12-04T07:35:37.505Z,12.13
2022-12-04T07:38:03.907Z,11.88
2022-12-04T07:40:30.816Z,15.63
2022-12-04T07:42:57.299Z,14.63
2022-12-04T07:45:23.841Z,15.30
2022-12-04T07:47:50.230Z,12.45
2022-12-04T07:50:16.814Z,12.10
2022-12-04T07:52:43.281Z,12.82
2022-12-04T07:55:09.868Z,14.00
2022-12-04T07:57:36.444Z,13.60
2022-12-04T08:00:03.809Z,15.77
2022-12-04T08:05:05.102Z,11.27
2022-12-04T08:07:32.261Z,15.00
2022-12-04T08:09:58.814Z,13.35
2022-12-04T08:12:25.310Z,16.35
2022-12-04T08:14:51.774Z,12.40
2022-12-04T08:17:18.361Z,14.63
2022-12-04T08:19:44.825Z,10.35
2022-12-04T08:22:11.313Z,15.40
2022-12-04T08:24:37.785Z,13.63
2022-12-04T08:27:04.483Z,15.85
2022-12-04T08:29:30.926Z,13.63
2022-12-04T08:31:57.385Z,15.95
2022-12-04T08:34:23.900Z,12.57
2022-12-04T08:36:50.452Z,10.93
2022-12-04T08:39:16.910Z,13.15
2022-12-04T08:41:43.413Z,16.17
2022-12-04T08:44:10.243Z,13.02
2022-12-04T08:46:37.019Z,14.43
2022-12-04T08:49:03.565Z,15.15
2022-12-04T08:51:32.274Z,14.05
2022-12-04T08:54:01.918Z,12.15
2022-12-04T08:56:30.637Z,15.32
2022-12-04T08:58:57.679Z,10.75
2022-12-04T09:01:25.718Z,10.18
2022-12-04T09:03:52.766Z,13.23
2022-12-04T09:06:19.705Z,13.35
2022-12-04T09:08:46.698Z,11.70
2022-12-04T09:11:16.873Z,12.55
2022-12-04T09:13:44.571Z,13.52
2022-12-04T09:16:14.762Z,7.38
2022-12-04T09:18:41.400Z,11.73
2022-12-04T09:21:11.553Z,13.48
2022-12-04T09:23:39.395Z,14.18
2022-12-04T09:26:15.302Z,13.35
2022-12-04T09:28:41.716Z,11.88
2022-12-04T09:31:08.220Z,15.25
2022-12-04T09:33:34.744Z,13.73
2022-12-04T09:36:02.845Z,11.38
2022-12-04T09:38:30.388Z,12.05
2022-12-04T09:41:30.052Z,10.18
2022-12-04T09:44:10.440Z,12.98
2022-12-04T09:46:45.495Z,9.43
2022-12-04T09:49:17.121Z,9.05
2022-12-04T09:51:43.903Z,14.00
2022-12-04T09:54:18.514Z,14.00
2022-12-04T09:56:53.448Z,13.35
2022-12-04T09:59:25.448Z,12.32
2022-12-04T10:01:58.633Z,10.88
2022-12-04T10:04:25.545Z,13.25
2022-12-04T10:07:10.995Z,10.10
2022-12-04T10:09:55.135Z,12.30
2022-12-04T10:12:44.760Z,10.80
2022-12-04T10:15:29.617Z,14.27
2022-12-04T10:18:23.860Z,11.48
2022-12-04T10:21:04.771Z,10.65
2022-12-04T10:23:40.711Z,9.82
2022-12-04T10:26:16.959Z,12.32
2022-12-04T10:28:55.745Z,11.63
2022-12-04T10:31:24.535Z,8.02
2022-12-04T10:33:55.755Z,9.18
2022-12-04T10:36:28.082Z,8.23
2022-12-04T10:39:14.182Z,6.55
2022-12-04T10:41:52.254Z,9.25
2022-12-04T10:44:22.032Z,10.02
2022-12-04T10:46:50.995Z,7.70
2022-12-04T10:49:22.788Z,8.52
2022-12-04T10:51:49.600Z,7.20
2022-12-04T10:54:26.950Z,7.65
2022-12-04T10:57:08.220Z,9.30
2022-12-04T10:59:35.477Z,9.70
2022-12-04T11:02:22.524Z,8.95
2022-12-04T11:07:31.894Z,9.55
2022-12-04T11:10:03.337Z,6.18
2022-12-04T11:12:32.112Z,6.05
2022-12-04T11:15:12.350Z,7.88
2022-12-04T11:17:39.231Z,9.27
2022-12-04T11:20:09.414Z,8.60
2022-12-04T11:22:48.070Z,8.52
2022-12-04T11:25:18.861Z,7.72
2022-12-04T11:27:55.719Z,8.90
2022-12-04T11:30:29.571Z,7.05
2022-12-04T11:32:57.152Z,8.18
2022-12-04T11:35:26.118Z,7.97
2022-12-04T11:37:59.160Z,8.52
2022-12-04T11:40:26.918Z,8.30
2022-12-04T11:43:25.268Z,5.97
2022-12-04T11:46:00.157Z,4.65
2022-12-04T11:48:29.113Z,8.50
2022-12-04T11:51:21.456Z,6.57
2022-12-04T11:53:55.715Z,6.28
2022-12-04T11:56:46.188Z,7.55
2022-12-04T11:59:12.650Z,6.40
2022-12-04T12:02:11.194Z,7.60
2022-12-04T12:04:49.895Z,7.45
2022-12-04T12:07:41.287Z,4.90
2022-12-04T12:10:17.435Z,6.93
2022-12-04T12:13:03.543Z,7.18
2022-12-04T12:15:48.746Z,6.30
2022-12-04T12:18:40.957Z,8.10
2022-12-04T12:21:14.426Z,6.53
2022-12-04T12:24:08.541Z,6.78
2022-12-04T12:27:02.839Z,7.90
2022-12-04T12:29:48.205Z,6.38
2022-12-04T12:32:40.112Z,6.75
2022-12-04T12:35:29.901Z,6.72
2022-12-04T12:38:01.501Z,7.10
2022-12-04T12:40:44.740Z,8.25
2022-12-04T12:43:31.825Z,7.18
2022-12-04T12:46:27.585Z,8.88
2022-12-04T12:49:06.406Z,5.28
2022-12-04T12:51:58.458Z,7.60
2022-12-04T12:54:53.406Z,6.95
2022-12-04T12:57:37.587Z,5.15
2022-12-04T13:00:15.573Z,5.90
2022-12-04T13:03:04.029Z,5.65
2022-12-04T13:05:37.264Z,6.63
2022-12-04T13:08:27.675Z,7.97
2022-12-04T13:11:13.463Z,7.38
2022-12-04T13:14:00.927Z,5.57
2022-12-04T13:16:40.642Z,4.65
2022-12-04T13:19:07.104Z,7.05
2022-12-04T13:21:37.438Z,8.65
2022-12-04T13:24:37.659Z,5.95
2022-12-04T13:27:34.701Z,5.38
2022-12-04T13:30:09.842Z,6.68
2022-12-04T13:32:57.696Z,5.32
2022-12-04T13:36:01.979Z,7.28
2022-12-04T13:38:49.911Z,7.25
2022-12-04T13:41:23.958Z,7.70
2022-12-04T13:43:53.030Z,8.13
2022-12-04T13:46:31.366Z,7.32
2022-12-04T13:49:08.613Z,8.60
2022-12-04T13:51:39.051Z,7.25
2022-12-04T13:54:11.759Z,7.85
2022-12-04T13:56:40.671Z,8.20
2022-12-04T13:59:36.097Z,8.85
2022-12-04T14:02:21.303Z,6.97
2022-12-04T14:05:01.873Z,9.90
2022-12-04T14:07:38.811Z,8.65
2022-12-04T14:10:07.587Z,18.42
2022-12-04T14:12:39.049Z,8.38
2022-12-04T14:15:38.994Z,7.68
2022-12-04T14:18:28.200Z,8.70
2022-12-04T14:21:05.424Z,9.88
2022-12-04T14:23:41.014Z,9.40
2022-12-04T14:26:21.975Z,9.18
2022-12-04T14:28:48.879Z,9.85
2022-12-04T14:31:24.037Z,5.25
2022-12-04T14:33:56.180Z,9.85
2022-12-04T14:36:33.352Z,8.35
2022-12-04T14:39:24.288Z,9.25
2022-12-04T14:41:52.173Z,8.68
2022-12-04T14:44:27.347Z,8.98
2022-12-04T14:46:57.541Z,9.75
2022-12-04T14:50:01.382Z,7.18
2022-12-04T14:53:09.272Z,5.57
2022-12-04T14:56:07.434Z,10.43
2022-12-04T14:58:37.665Z,7.55
2022-12-04T15:01:15.993Z,5.38
2022-12-04T15:03:45.919Z,8.82
2022-12-04T15:06:21.595Z,11.85
2022-12-04T15:09:19.076Z,9.25
2022-12-04T15:12:08.934Z,9.40
2022-12-04T15:14:51.323Z,13.75
2022-12-04T15:17:18.777Z,12.73
2022-12-04T15:19:45.779Z,12.48
2022-12-04T15:22:20.599Z,8.30
2022-12-04T15:24:47.054Z,12.48
2022-12-04T15:27:16.681Z,11.95
2022-12-04T15:29:48.229Z,10.77
2022-12-04T15:32:17.406Z,11.10
2022-12-04T15:34:48.872Z,9.40
2022-12-04T15:37:28.614Z,10.45
2022-12-04T15:39:56.502Z,12.25
2022-12-04T15:42:27.290Z,9.02
2022-12-04T15:45:01.185Z,14.23
2022-12-04T15:47:49.903Z,12.15
2022-12-04T15:50:16.375Z,12.43
2022-12-04T15:53:14.721Z,11.07
2022-12-04T15:55:56.872Z,15.90
2022-12-04T15:58:28.159Z,13.95
2022-12-04T16:01:05.627Z,11.70
2022-12-04T16:03:38.757Z,11.20
2022-12-04T16:06:29.742Z,12.60
2022-12-04T16:09:01.343Z,10.80
2022-12-04T16:11:37.246Z,13.68
2022-12-04T16:14:09.471Z,9.75
2022-12-04T16:16:38.421Z,11.10
2022-12-04T16:19:35.285Z,10.15
2022-12-04T16:22:03.660Z,9.95
2022-12-04T16:24:30.716Z,10.82
2022-12-04T16:27:00.081Z,10.43
2022-12-04T16:31:55.158Z,7.75
2022-12-04T16:34:26.074Z,9.80
2022-12-04T16:36:52.506Z,11.10
2022-12-04T16:39:18.977Z,11.60
2022-12-04T16:41:45.442Z,12.40
2022-12-04T16:44:15.511Z,12.20
2022-12-04T16:46:42.748Z,14.38
2022-12-04T16:49:12.860Z,12.02
2022-12-04T16:51:43.630Z,12.38
2022-12-04T16:54:12.105Z,10.75
2022-12-04T16:56:39.067Z,11.93
2022-12-04T16:59:11.593Z,8.55
2022-12-04T17:01:47.772Z,12.48
2022-12-04T17:04:15.916Z,10.55
2022-12-04T17:06:42.558Z,11.52
2022-12-04T17:09:09.639Z,12.18
2022-12-04T17:11:37.048Z,13.52
2022-12-04T17:14:07.380Z,12.57
2022-12-04T17:16:38.481Z,10.35
2022-12-04T17:19:05.157Z,12.43
2022-12-04T17:21:33.688Z,13.80
2022-12-04T17:24:01.010Z,11.82
2022-12-04T17:26:28.235Z,10.88
2022-12-04T17:28:54.673Z,9.70
2022-12-04T17:31:23.924Z,8.15
2022-12-04T17:33:50.864Z,9.57
2022-12-04T17:36:20.162Z,12.63
2022-12-04T17:38:47.116Z,11.07
2022-12-04T17:41:15.063Z,8.68
2022-12-04T17:43:43.528Z,12.30
2022-12-04T17:46:12.008Z,10.18
2022-12-04T17:48:38.928Z,11.13
2022-12-04T17:51:08.109Z,10.00
2022-12-04T17:53:35.126Z,12.05
2022-12-04T17:56:13.147Z,5.88
2022-12-04T17:58:40.207Z,11.15
2022-12-04T18:01:13.805Z,8.77
2022-12-04T18:03:41.374Z,9.40
2022-12-04T18:06:13.329Z,9.07
2022-12-04T18:08:55.081Z,6.30
2022-12-04T18:11:23.788Z,9.18
2022-12-04T18:13:56.209Z,9.98
2022-12-04T18:16:22.901Z,9.63
2022-12-04T18:18:50.807Z,8.85
2022-12-04T18:21:17.368Z,10.00
2022-12-04T18:23:46.396Z,8.68
2022-12-04T18:26:16.093Z,9.82
2022-12-04T18:28:43.407Z,9.27
2022-12-04T18:31:09.986Z,7.80
2022-12-04T18:33:38.918Z,11.85
2022-12-04T18:36:06.796Z,11.45
2022-12-04T18:38:33.226Z,11.95
2022-12-04T18:41:06.919Z,9.25
2022-12-04T18:43:45.155Z,14.27
2022-12-04T18:46:13.983Z,8.82
2022-12-04T18:48:42.763Z,10.48
2022-12-04T18:51:15.962Z,13.88
2022-12-04T18:53:43.251Z,12.95
2022-12-04T18:56:09.911Z,11.77
2022-12-04T18:58:36.457Z,13.52
2022-12-04T19:01:11.335Z,13.48
2022-12-04T19:03:38.312Z,13.98
2022-12-04T19:06:05.313Z,12.43
2022-12-04T19:08:34.346Z,12.45
2022-12-04T19:11:07.162Z,8.82
2022-12-04T19:13:34.146Z,12.57
2022-12-04T19:16:00.910Z,14.05
2022-12-04T19:18:27.575Z,12.52
2022-12-04T19:20:54.366Z,13.40
2022-12-04T19:23:22.791Z,10.00
2022-12-04T19:26:02.712Z,13.05
2022-12-04T19:28:29.907Z,15.10
2022-12-04T19:30:56.666Z,14.40
2022-12-04T19:33:24.109Z,14.45
2022-12-04T19:35:59.404Z,13.75
2022-12-04T19:38:26.891Z,14.98
2022-12-04T19:41:10.175Z,12.88
2022-12-04T19:43:38.599Z,14.38
2022-12-04T19:46:07.015Z,14.55
2022-12-04T19:48:33.990Z,13.32
2022-12-04T19:51:12.087Z,12.55
2022-12-04T19:53:41.156Z,14.80
2022-12-04T19:58:38.937Z,14.70
2022-12-04T20:01:07.806Z,12.13
2022-12-04T20:03:35.634Z,15.05
2022-12-04T20:06:07.833Z,14.85
2022-12-04T20:08:35.374Z,12.85
2022-12-04T20:11:05.712Z,13.65
2022-12-04T20:13:35.505Z,12.93
2022-12-04T20:16:05.154Z,9.27
2022-12-04T20:18:32.032Z,15.43
2022-12-04T20:21:00.779Z,14.18
2022-12-04T20:23:54.265Z,12.45
2022-12-04T20:26:26.318Z,16.15
2022-12-04T20:28:55.771Z,14.68
2022-12-04T20:31:28.823Z,9.68
2022-12-04T20:33:58.399Z,11.35
2022-12-04T20:36:27.741Z,14.25
2022-12-04T20:41:22.632Z,12.40
2022-12-04T20:43:49.297Z,13.85
2022-12-04T20:46:24.903Z,16.15
2022-12-04T20:48:53.384Z,10.70
2022-12-04T20:51:23.489Z,15.95
2022-12-04T20:53:50.839Z,10.88
2022-12-04T20:56:19.139Z,12.50
2022-12-04T20:58:45.899Z,15.13
2022-12-04T21:01:15.636Z,13.25
2022-12-04T21:03:43.124Z,14.43
2022-12-04T21:06:19.669Z,14.80
2022-12-04T21:08:53.300Z,13.57
2022-12-04T21:11:20.820Z,14.32
2022-12-04T21:14:05.973Z,14.38
2022-12-04T21:16:32.861Z,14.85
2022-12-04T21:18:59.338Z,13.45
2022-12-04T21:21:26.823Z,16.00
2022-12-04T21:23:53.390Z,15.93
2022-12-04T21:26:20.574Z,12.80
2022-12-04T21:28:47.515Z,14.00
2022-12-04T21:31:14.555Z,15.18
2022-12-04T21:33:41.038Z,15.35
2022-12-04T21:36:09.437Z,14.95
2022-12-04T21:38:37.995Z,10.63
2022-12-04T21:41:06.604Z,15.98
2022-12-04T21:43:34.068Z,13.02
2022-12-04T21:46:09.347Z,11.13
2022-12-04T21:48:36.421Z,14.95
2022-12-04T21:51:21.271Z,13.13
2022-12-04T21:53:54.751Z,13.55
2022-12-04T21:56:22.504Z,16.13
2022-12-04T21:58:49.307Z,14.00
2022-12-04T22:01:17.486Z,15.48
2022-12-04T22:03:44.656Z,12.85
2022-12-04T22:06:11.219Z,15.63
2022-12-04T22:08:39.888Z,13.60
2022-12-04T22:11:08.807Z,10.20
2022-12-04T22:13:36.535Z,11.80
2022-12-04T22:16:04.848Z,12.63
2022-12-04T22:18:31.722Z,14.18
2022-12-04T22:20:58.170Z,13.85
2022-12-04T22:23:24.611Z,14.13
2022-12-04T22:25:51.279Z,14.30
2022-12-04T22:28:18.344Z,14.23
2022-12-04T22:30:44.738Z,13.43
2022-12-04T22:33:11.246Z,15.05
2022-12-04T22:35:37.701Z,14.40
2022-12-04T22:38:04.117Z,15.50
2022-12-04T22:40:30.558Z,14.20
2022-12-04T22:42:56.926Z,14.07
2022-12-04T22:45:23.367Z,14.15
2022-12-04T22:47:49.758Z,13.43
2022-12-04T22:50:16.192Z,14.23
2022-12-04T22:52:42.817Z,15.60
2022-12-04T22:55:09.418Z,14.77
2022-12-04T22:57:36.003Z,14.73
2022-12-04T23:00:02.564Z,13.20
2022-12-04T23:02:29.062Z,12.60
2022-12-04T23:04:55.554Z,13.55
2022-12-04T23:07:22.203Z,14.60
2022-12-04T23:09:48.609Z,14.23
2022-12-04T23:12:15.634Z,13.35
2022-12-04T23:14:42.120Z,12.30
2022-12-04T23:17:08.601Z,11.27
2022-12-04T23:19:35.194Z,13.98
2022-12-04T23:22:01.690Z,12.90
2022-12-04T23:24:28.736Z,12.95
2022-12-04T23:26:55.318Z,13.38
2022-12-04T23:29:52.861Z,14.52
2022-12-04T23:32:08.142Z,13.52
2022-12-04T23:34:34.576Z,12.75
2022-12-04T23:37:00.957Z,13.70
2022-12-04T23:39:27.419Z,12.93
2022-12-04T23:41:53.878Z,10.32
2022-12-04T23:44:20.306Z,13.40
2022-12-04T23:46:46.844Z,11.32
2022-12-04T23:49:13.650Z,12.45
2022-12-04T23:51:40.110Z,12.82
2022-12-04T23:54:06.671Z,10.80
2022-12-04T23:56:33.116Z,12.38
2022-12-04T23:58:59.772Z,11.43
